Time;durP1;ratioP1;P1;durP2;ratioP2;P2;SDS_P1;SDS_P2;PMS_P1;PMS_P2;Temp;Humidity;BMP_temperature;BMP_pressure;BME280_temperature;BME280_humidity;BME280_pressure;Samples;Min_cycle;Max_cycle;Signal;HPM_P1;HPM_P2
2021/04/24 00:02:14;;;;;;;11.68;6.72;;;13.10;99.90;;;;;;5051356;28;20433;-77
2021/04/24 00:04:42;;;;;;;13.45;7.15;;;13.10;99.90;;;;;;5051354;28;20029;-78
2021/04/24 00:07:08;;;;;;;8.68;6.60;;;13.00;99.90;;;;;;5051651;28;20021;-77
2021/04/24 00:09:33;;;;;;;9.10;6.55;;;13.00;99.90;;;;;;5049872;28;20452;-77
2021/04/24 00:11:59;;;;;;;12.80;7.10;;;12.90;99.90;;;;;;5050117;28;20112;-77
2021/04/24 00:14:25;;;;;;;7.60;6.05;;;12.80;99.90;;;;;;5051045;28;20025;-76
2021/04/24 00:16:51;;;;;;;8.88;7.07;;;12.80;99.90;;;;;;5050920;28;20108;-77
2021/04/24 00:19:17;;;;;;;8.05;6.38;;;12.80;99.90;;;;;;5051000;28;20036;-76
2021/04/24 00:21:42;;;;;;;10.45;7.20;;;12.70;99.90;;;;;;5053871;28;20025;-77
2021/04/24 00:24:08;;;;;;;9.48;6.72;;;12.70;99.90;;;;;;5054741;28;20033;-77
2021/04/24 00:26:34;;;;;;;13.65;7.25;;;12.70;99.90;;;;;;5055031;28;20021;-77
2021/04/24 00:29:00;;;;;;;13.13;7.07;;;12.60;99.90;;;;;;5055182;28;20427;-77
2021/04/24 00:31:25;;;;;;;12.10;7.00;;;12.60;99.90;;;;;;5054923;28;20017;-77
2021/04/24 00:33:51;;;;;;;13.13;6.63;;;12.60;99.90;;;;;;5055148;28;20033;-77
2021/04/24 00:36:17;;;;;;;12.20;7.50;;;12.60;99.90;;;;;;5054528;28;20054;-76
2021/04/24 00:38:42;;;;;;;16.13;6.30;;;12.60;99.90;;;;;;5054622;28;20045;-77
2021/04/24 00:41:08;;;;;;;13.57;6.85;;;12.50;99.90;;;;;;5054783;28;20028;-77
2021/04/24 00:43:34;;;;;;;11.55;7.03;;;12.50;99.90;;;;;;5055032;28;20024;-77
2021/04/24 00:46:08;;;;;;;8.60;6.13;;;12.50;99.90;;;;;;5054727;28;20044;-78
2021/04/24 00:48:34;;;;;;;8.55;5.80;;;12.50;99.90;;;;;;5054295;28;20068;-77
2021/04/24 00:51:00;;;;;;;14.23;5.95;;;12.50;99.90;;;;;;5054552;28;20052;-78
2021/04/24 00:53:25;;;;;;;12.48;5.88;;;12.40;99.90;;;;;;5054267;28;20094;-77
2021/04/24 00:55:51;;;;;;;11.10;5.72;;;12.50;99.90;;;;;;5053973;28;20434;-78
2021/04/24 00:58:17;;;;;;;10.10;5.57;;;12.60;99.90;;;;;;5054406;28;20401;-76
2021/04/24 01:00:43;;;;;;;17.35;5.88;;;12.60;99.90;;;;;;5054349;28;20033;-77
2021/04/24 01:03:08;;;;;;;9.90;6.40;;;12.60;99.90;;;;;;5052679;28;20074;-77
2021/04/24 01:05:37;;;;;;;14.38;6.03;;;12.50;99.90;;;;;;5054313;28;20028;-78
2021/04/24 01:08:03;;;;;;;15.38;6.57;;;12.50;99.90;;;;;;5054198;28;20498;-79
2021/04/24 01:10:37;;;;;;;9.15;5.15;;;12.50;99.90;;;;;;5054175;28;20056;-77
2021/04/24 01:13:04;;;;;;;15.70;5.60;;;12.50;99.90;;;;;;5053998;28;20096;-78
2021/04/24 01:15:31;;;;;;;9.90;5.93;;;12.60;99.90;;;;;;5053863;28;20045;-78
2021/04/24 01:17:56;;;;;;;12.43;5.30;;;12.60;99.90;;;;;;5053838;28;20053;-77
2021/04/24 01:20:23;;;;;;;21.88;6.78;;;12.70;99.90;;;;;;5053360;28;20060;-77
2021/04/24 01:22:50;;;;;;;9.35;5.60;;;12.90;99.90;;;;;;5053619;28;20028;-78
2021/04/24 01:25:18;;;;;;;10.30;4.70;;;13.00;99.90;;;;;;5053508;28;20041;-78
2021/04/24 01:27:50;;;;;;;8.73;4.38;;;13.00;99.90;;;;;;5053508;28;20025;-78
2021/04/24 01:30:17;;;;;;;6.22;4.68;;;13.10;99.90;;;;;;5054038;28;20035;-77
2021/04/24 01:32:43;;;;;;;12.05;4.80;;;13.10;99.90;;;;;;5053630;28;20461;-78
2021/04/24 01:35:14;;;;;;;6.30;4.22;;;13.10;99.90;;;;;;5053878;28;20032;-77
2021/04/24 01:37:40;;;;;;;9.68;5.00;;;13.10;99.90;;;;;;5053422;28;20029;-76
2021/04/24 01:40:08;;;;;;;6.53;3.88;;;13.20;99.90;;;;;;5053332;28;20039;-78
2021/04/24 01:42:34;;;;;;;6.20;4.13;;;13.20;99.90;;;;;;5053516;28;20033;-74
2021/04/24 01:44:59;;;;;;;15.57;4.38;;;13.20;99.90;;;;;;5053185;28;20036;-77
2021/04/24 01:47:25;;;;;;;8.98;4.43;;;13.20;99.90;;;;;;5034164;28;20029;-76
2021/04/24 01:49:51;;;;;;;15.65;5.05;;;13.10;99.90;;;;;;5042543;28;20130;-77
2021/04/24 01:52:17;;;;;;;8.32;5.07;;;13.10;99.90;;;;;;5053287;28;20538;-77
2021/04/24 01:54:43;;;;;;;9.77;4.75;;;13.10;99.90;;;;;;5053378;28;20362;-78
2021/04/24 01:57:08;;;;;;;8.32;4.38;;;13.00;99.90;;;;;;5053393;28;20041;-78
2021/04/24 01:59:35;;;;;;;12.40;4.65;;;12.90;99.90;;;;;;5053371;28;20033;-76
2021/04/24 02:02:02;;;;;;;10.15;5.13;;;12.90;99.90;;;;;;5044354;28;20020;-76
2021/04/24 02:04:28;;;;;;;8.55;5.05;;;12.80;99.90;;;;;;5050971;28;20093;-76
2021/04/24 02:06:55;;;;;;;7.65;4.53;;;12.80;99.90;;;;;;5053431;28;20026;-77
2021/04/24 02:09:22;;;;;;;10.23;4.40;;;12.70;99.90;;;;;;5053222;28;20351;-78
2021/04/24 02:12:08;;;;;;;5.60;4.20;;;12.70;99.90;;;;;;5041165;28;20087;-76
2021/04/24 02:14:45;;;;;;;13.65;4.53;;;12.60;99.90;;;;;;5038463;28;20377;-78
2021/04/24 02:17:12;;;;;;;12.82;4.85;;;12.60;99.90;;;;;;5050003;28;20025;-76
2021/04/24 02:19:40;;;;;;;8.07;4.45;;;12.60;99.90;;;;;;5052118;28;20040;-76
2021/04/24 02:22:07;;;;;;;9.50;4.53;;;12.60;99.90;;;;;;5053220;28;20029;-76
2021/04/24 02:24:48;;;;;;;10.98;5.72;;;12.50;99.90;;;;;;5052505;28;20056;-76
2021/04/24 02:27:14;;;;;;;10.20;5.03;;;12.50;99.90;;;;;;5052685;28;20021;-76
2021/04/24 02:29:41;;;;;;;24.52;4.93;;;12.50;99.90;;;;;;5052511;28;20031;-77
2021/04/24 02:32:08;;;;;;;8.35;4.75;;;12.50;99.90;;;;;;5051698;28;20025;-76
2021/04/24 02:34:36;;;;;;;11.57;4.50;;;12.50;99.90;;;;;;5052093;28;20028;-77
2021/04/24 02:37:02;;;;;;;8.88;4.57;;;12.50;99.90;;;;;;5052529;28;20024;-76
2021/04/24 02:39:36;;;;;;;8.90;5.10;;;12.40;99.90;;;;;;5052246;28;20052;-76
2021/04/24 02:42:11;;;;;;;16.40;4.95;;;12.40;99.90;;;;;;5052945;28;20408;-77
2021/04/24 02:44:37;;;;;;;7.07;4.50;;;12.40;99.90;;;;;;5051794;28;20075;-77
2021/04/24 02:47:03;;;;;;;10.90;4.93;;;12.40;99.90;;;;;;5052041;28;20032;-78
2021/04/24 02:49:30;;;;;;;12.05;5.30;;;12.50;99.90;;;;;;5052332;28;20032;-76
2021/04/24 02:51:57;;;;;;;19.10;5.68;;;12.40;99.90;;;;;;5048228;28;20013;-76
2021/04/24 02:54:24;;;;;;;12.02;5.55;;;12.40;99.90;;;;;;5034603;28;20033;-76
2021/04/24 02:56:50;;;;;;;9.82;5.63;;;12.40;99.90;;;;;;5052394;28;20511;-77
2021/04/24 02:59:16;;;;;;;18.45;5.18;;;12.40;99.90;;;;;;5051922;28;20496;-76
2021/04/24 03:01:43;;;;;;;14.32;5.20;;;12.40;99.90;;;;;;5052334;28;20032;-77
2021/04/24 03:04:09;;;;;;;10.98;4.70;;;12.30;99.90;;;;;;5052082;28;20029;-77
2021/04/24 03:06:35;;;;;;;11.32;4.97;;;12.30;99.90;;;;;;5050342;28;20028;-77
2021/04/24 03:09:01;;;;;;;13.55;4.25;;;12.20;99.90;;;;;;5051681;28;20025;-76
2021/04/24 03:11:28;;;;;;;15.18;5.60;;;12.20;99.90;;;;;;5051889;28;20477;-76
2021/04/24 03:13:55;;;;;;;10.40;4.90;;;12.20;99.90;;;;;;5051689;28;20025;-77
2021/04/24 03:16:21;;;;;;;13.68;4.68;;;12.10;99.90;;;;;;5052266;28;20021;-76
2021/04/24 03:18:46;;;;;;;11.93;5.78;;;12.10;99.90;;;;;;5051741;28;20047;-76
2021/04/24 03:21:13;;;;;;;9.63;4.85;;;12.10;99.90;;;;;;5051879;28;20021;-78
2021/04/24 03:23:38;;;;;;;9.75;4.85;;;12.00;99.90;;;;;;5051816;28;20082;-76
2021/04/24 03:26:04;;;;;;;13.77;5.78;;;12.00;99.90;;;;;;5051877;28;20377;-76
2021/04/24 03:28:30;;;;;;;8.68;4.57;;;11.90;99.90;;;;;;5051982;28;20100;-77
2021/04/24 03:30:55;;;;;;;7.35;4.95;;;11.90;99.90;;;;;;5051384;28;20083;-78
2021/04/24 03:33:21;;;;;;;9.68;4.65;;;11.90;99.90;;;;;;5051268;28;20017;-78
2021/04/24 03:35:47;;;;;;;11.57;4.43;;;11.90;99.90;;;;;;5051299;28;20500;-77
2021/04/24 03:38:13;;;;;;;8.85;4.68;;;11.90;99.90;;;;;;5051542;28;20044;-77
2021/04/24 03:40:39;;;;;;;9.10;4.75;;;11.90;99.90;;;;;;5051727;28;20503;-77
2021/04/24 03:43:05;;;;;;;13.88;5.35;;;11.90;99.90;;;;;;5051336;28;20049;-78
2021/04/24 03:45:30;;;;;;;9.52;5.20;;;12.00;99.90;;;;;;5051425;28;20117;-76
2021/04/24 03:47:57;;;;;;;10.55;4.55;;;12.10;99.90;;;;;;5051450;28;20110;-77
2021/04/24 03:50:25;;;;;;;14.48;5.40;;;12.10;99.90;;;;;;5051705;28;20079;-75
2021/04/24 03:52:52;;;;;;;11.35;5.20;;;12.00;99.90;;;;;;5051310;28;20082;-77
2021/04/24 03:55:19;;;;;;;15.98;5.85;;;12.00;99.90;;;;;;5052975;28;20110;-77
2021/04/24 03:57:49;;;;;;;12.82;5.55;;;11.90;99.90;;;;;;5055402;28;20020;-76
2021/04/24 04:00:17;;;;;;;7.97;4.78;;;11.80;99.90;;;;;;5055408;28;20158;-77
2021/04/24 04:02:57;;;;;;;10.18;4.95;;;11.80;99.90;;;;;;5055502;28;20123;-77
2021/04/24 04:05:30;;;;;;;10.32;5.78;;;11.70;99.90;;;;;;5055686;28;20017;-75
2021/04/24 04:07:56;;;;;;;13.13;4.78;;;11.70;99.90;;;;;;5054341;28;20036;-78
2021/04/24 04:10:23;;;;;;;8.45;5.13;;;11.70;99.90;;;;;;5047578;28;20032;-75
2021/04/24 04:12:49;;;;;;;10.23;5.18;;;11.60;99.90;;;;;;5048593;28;20063;-75
2021/04/24 04:15:16;;;;;;;7.68;4.90;;;11.60;99.90;;;;;;5055324;28;20024;-75
2021/04/24 04:17:43;;;;;;;9.30;4.90;;;11.60;99.90;;;;;;5055179;28;20063;-77
2021/04/24 04:20:11;;;;;;;12.85;5.47;;;11.70;99.90;;;;;;5055390;28;20101;-76
2021/04/24 04:22:37;;;;;;;12.90;5.13;;;11.70;99.90;;;;;;5055172;28;20063;-76
2021/04/24 04:25:04;;;;;;;8.15;4.95;;;11.60;99.90;;;;;;5054642;28;20029;-75
2021/04/24 04:27:30;;;;;;;6.35;4.57;;;11.60;99.90;;;;;;5055013;28;20016;-76
2021/04/24 04:29:55;;;;;;;10.48;5.22;;;11.50;99.90;;;;;;5054981;28;20385;-75
2021/04/24 04:32:22;;;;;;;13.60;5.55;;;11.40;99.90;;;;;;5037759;28;20068;-76
2021/04/24 04:34:47;;;;;;;14.30;6.45;;;11.30;99.90;;;;;;5036735;28;20142;-76
2021/04/24 04:37:13;;;;;;;14.35;5.63;;;11.30;99.90;;;;;;5037932;28;20121;-75
2021/04/24 04:39:39;;;;;;;10.85;5.35;;;11.40;99.90;;;;;;5036463;28;20549;-76
2021/04/24 04:42:05;;;;;;;13.82;5.57;;;11.50;99.90;;;;;;5037472;28;20025;-76
2021/04/24 04:44:32;;;;;;;12.57;5.40;;;11.70;99.90;;;;;;5035751;28;20067;-75
2021/04/24 04:46:57;;;;;;;17.50;5.07;;;12.00;99.90;;;;;;5036396;28;20086;-75
2021/04/24 04:49:23;;;;;;;10.93;5.22;;;12.10;99.90;;;;;;5037296;28;20025;-76
2021/04/24 04:51:48;;;;;;;18.17;5.00;;;12.40;99.90;;;;;;5036241;28;20026;-77
2021/04/24 04:54:14;;;;;;;12.63;5.10;;;13.00;99.90;;;;;;5037504;28;20024;-76
2021/04/24 04:56:40;;;;;;;10.23;4.75;;;13.80;99.90;;;;;;5035615;28;20397;-76
2021/04/24 04:59:06;;;;;;;13.65;4.78;;;14.60;99.90;;;;;;5037242;28;20538;-76
2021/04/24 05:01:32;;;;;;;14.07;5.10;;;15.40;99.90;;;;;;5036177;28;20070;-76
2021/04/24 05:03:57;;;;;;;8.25;4.47;;;16.20;99.90;;;;;;5036316;28;20367;-75
2021/04/24 05:06:23;;;;;;;7.68;4.53;;;17.00;99.90;;;;;;5035429;28;20053;-76
2021/04/24 05:08:48;;;;;;;13.35;4.65;;;17.50;99.90;;;;;;5037798;28;20080;-76
2021/04/24 05:11:14;;;;;;;16.85;4.65;;;17.90;98.40;;;;;;5054119;28;20058;-75
2021/04/24 05:13:42;;;;;;;10.30;4.15;;;18.20;97.30;;;;;;5053013;28;20088;-75
2021/04/24 05:16:07;;;;;;;10.95;4.10;;;18.80;96.00;;;;;;5054357;28;20072;-76
2021/04/24 05:18:33;;;;;;;10.82;4.45;;;19.10;94.20;;;;;;5053825;28;20119;-76
2021/04/24 05:20:59;;;;;;;7.10;4.10;;;19.00;93.30;;;;;;5053631;28;20052;-76
2021/04/24 05:23:25;;;;;;;7.35;4.18;;;18.80;93.00;;;;;;5039694;28;20014;-76
2021/04/24 05:25:51;;;;;;;9.23;3.78;;;19.20;92.40;;;;;;5053434;28;20025;-76
2021/04/24 05:28:17;;;;;;;7.78;4.30;;;19.80;91.70;;;;;;5054164;28;20025;-76
2021/04/24 05:30:42;;;;;;;6.70;3.50;;;20.60;90.20;;;;;;5053439;28;20021;-75
2021/04/24 05:33:08;;;;;;;12.25;4.03;;;21.00;88.00;;;;;;5053609;28;20408;-76
2021/04/24 05:35:34;;;;;;;12.05;3.40;;;21.50;86.00;;;;;;5053862;28;20017;-77
2021/04/24 05:38:00;;;;;;;10.60;4.00;;;21.70;83.60;;;;;;5053545;28;20102;-75
2021/04/24 05:40:26;;;;;;;9.43;3.70;;;22.00;82.50;;;;;;5053576;28;20041;-76
2021/04/24 05:42:52;;;;;;;15.23;3.72;;;22.30;81.30;;;;;;5052422;28;20174;-76
2021/04/24 05:45:18;;;;;;;14.63;4.00;;;22.80;78.60;;;;;;5053317;28;20516;-76
2021/04/24 05:47:49;;;;;;;10.73;3.55;;;23.00;76.40;;;;;;5053325;28;20068;-76
2021/04/24 05:50:17;;;;;;;12.88;3.67;;;23.10;75.10;;;;;;5052849;28;20032;-76
2021/04/24 05:52:43;;;;;;;12.90;3.42;;;23.70;74.10;;;;;;5053054;28;20108;-76
2021/04/24 05:55:11;;;;;;;8.13;3.53;;;24.60;72.60;;;;;;5053737;28;20469;-76
2021/04/24 05:57:38;;;;;;;8.40;4.13;;;25.10;71.00;;;;;;5053387;28;20033;-77
2021/04/24 06:00:15;;;;;;;13.20;4.22;;;25.10;68.90;;;;;;5053334;28;20136;-76
2021/04/24 06:02:41;;;;;;;10.98;3.60;;;25.20;68.00;;;;;;5052724;28;20033;-77
2021/04/24 06:05:09;;;;;;;8.95;3.83;;;25.00;66.80;;;;;;5049018;28;20029;-77
2021/04/24 06:07:36;;;;;;;15.02;3.80;;;24.70;66.80;;;;;;5038325;28;20049;-77
2021/04/24 06:10:04;;;;;;;12.27;3.65;;;24.70;66.70;;;;;;5049201;28;20500;-76
2021/04/24 06:12:29;;;;;;;8.40;3.55;;;24.90;66.30;;;;;;5045104;28;20079;-77
2021/04/24 06:14:55;;;;;;;9.13;3.53;;;25.20;65.50;;;;;;5045648;28;20017;-77
2021/04/24 06:17:21;;;;;;;7.97;3.28;;;25.20;64.90;;;;;;5052967;28;20025;-76
2021/04/24 06:19:47;;;;;;;17.75;3.60;;;25.30;63.90;;;;;;5051136;28;20060;-77
2021/04/24 06:22:13;;;;;;;10.63;3.72;;;25.80;64.10;;;;;;5050835;28;20049;-76
2021/04/24 06:24:39;;;;;;;8.55;3.50;;;25.90;62.80;;;;;;5052067;28;20079;-77
2021/04/24 06:27:05;;;;;;;12.45;3.60;;;26.20;62.90;;;;;;5053173;28;20071;-78
2021/04/24 06:29:31;;;;;;;12.13;4.10;;;26.10;62.20;;;;;;5051818;28;20021;-78
2021/04/24 06:31:56;;;;;;;10.55;3.58;;;26.30;61.80;;;;;;5048557;28;20068;-78
2021/04/24 06:34:22;;;;;;;19.20;3.33;;;26.60;61.90;;;;;;5050408;28;20377;-77
2021/04/24 06:36:49;;;;;;;11.07;3.40;;;26.70;61.40;;;;;;5041502;28;20028;-78
2021/04/24 06:39:14;;;;;;;9.70;3.38;;;26.80;60.60;;;;;;5039947;28;20077;-76
2021/04/24 06:41:40;;;;;;;13.43;3.17;;;26.80;60.50;;;;;;5052031;28;20055;-77
2021/04/24 06:44:06;;;;;;;7.95;3.17;;;27.20;60.30;;;;;;5037791;28;20029;-76
2021/04/24 06:46:31;;;;;;;9.13;3.30;;;27.90;59.10;;;;;;5042142;28;20017;-76
2021/04/24 06:48:57;;;;;;;10.00;3.60;;;28.60;58.30;;;;;;5052061;28;20032;-77
2021/04/24 06:51:23;;;;;;;7.38;3.08;;;28.70;57.20;;;;;;5045973;28;20121;-76
2021/04/24 06:53:50;;;;;;;8.57;3.40;;;28.60;57.10;;;;;;5044450;28;20597;-76
2021/04/24 06:56:16;;;;;;;16.30;3.00;;;29.60;56.90;;;;;;5038921;28;20056;-76
2021/04/24 06:58:41;;;;;;;12.13;3.38;;;30.60;55.80;;;;;;5043149;28;20473;-77
2021/04/24 07:01:07;;;;;;;6.22;3.10;;;31.10;54.50;;;;;;5052113;28;20414;-79
2021/04/24 07:03:33;;;;;;;16.98;3.28;;;30.90;54.50;;;;;;5052503;28;21223;-76
2021/04/24 07:05:59;;;;;;;12.80;3.20;;;31.80;54.00;;;;;;5052526;28;20029;-78
2021/04/24 07:08:24;;;;;;;7.68;3.03;;;32.40;53.60;;;;;;5044481;28;20386;-75
2021/04/24 07:10:50;;;;;;;19.30;3.15;;;33.10;52.80;;;;;;5050613;28;20021;-76
2021/04/24 07:13:16;;;;;;;11.93;4.03;;;33.30;51.70;;;;;;5052090;28;20567;-76
2021/04/24 07:15:41;;;;;;;9.93;2.72;;;33.40;51.20;;;;;;5047672;28;20029;-77
2021/04/24 07:18:07;;;;;;;10.70;2.63;;;33.80;50.50;;;;;;5044861;28;20039;-76
2021/04/24 07:20:33;;;;;;;8.75;3.28;;;33.70;50.20;;;;;;5036141;28;20044;-77
2021/04/24 07:22:59;;;;;;;5.45;2.65;;;33.60;50.30;;;;;;5039212;28;20047;-77
2021/04/24 07:25:24;;;;;;;14.73;2.97;;;33.70;49.70;;;;;;5050976;28;20021;-77
2021/04/24 07:27:50;;;;;;;4.35;2.40;;;33.70;49.70;;;;;;5042711;28;20028;-78
2021/04/24 07:30:16;;;;;;;7.25;3.22;;;32.90;49.20;;;;;;5047602;28;20699;-79
2021/04/24 07:32:42;;;;;;;10.85;2.80;;;32.40;49.80;;;;;;5047793;28;20021;-77
2021/04/24 07:35:08;;;;;;;9.25;2.83;;;32.10;50.20;;;;;;5049463;28;20036;-77
2021/04/24 07:37:35;;;;;;;8.45;2.70;;;32.20;49.80;;;;;;5044835;28;20103;-77
2021/04/24 07:40:02;;;;;;;16.05;3.35;;;32.20;49.20;;;;;;5050309;28;20049;-77
2021/04/24 07:42:28;;;;;;;9.07;3.03;;;32.10;49.50;;;;;;5036640;28;20074;-77
2021/04/24 07:44:53;;;;;;;10.45;3.45;;;31.90;50.10;;;;;;5042232;28;20029;-76
2021/04/24 07:47:19;;;;;;;23.73;3.67;;;31.60;49.40;;;;;;5040876;28;20116;-76
2021/04/24 07:49:45;;;;;;;10.18;3.58;;;30.90;49.70;;;;;;5053012;28;20029;-76
2021/04/24 07:52:11;;;;;;;16.27;4.07;;;30.00;50.70;;;;;;5043677;28;20017;-77
2021/04/24 07:54:42;;;;;;;8.65;3.60;;;28.70;51.50;;;;;;5035860;28;20036;-79
2021/04/24 07:57:15;;;;;;;10.20;3.45;;;27.80;52.90;;;;;;5051839;28;20484;-76
2021/04/24 07:59:42;;;;;;;14.90;3.75;;;27.10;53.60;;;;;;5051292;28;20040;-77
2021/04/24 08:02:09;;;;;;;11.88;3.03;;;26.50;54.50;;;;;;5054227;28;20492;-82
2021/04/24 08:04:35;;;;;;;13.27;3.92;;;25.80;54.30;;;;;;5048860;28;20452;-77
2021/04/24 08:07:02;;;;;;;12.15;3.85;;;24.90;55.30;;;;;;5049198;28;20100;-80
2021/04/24 08:09:27;;;;;;;16.95;3.90;;;24.30;56.90;;;;;;5049418;28;20047;-79
2021/04/24 08:11:53;;;;;;;9.88;3.70;;;24.20;57.60;;;;;;5051022;28;20110;-76
2021/04/24 08:14:20;;;;;;;12.05;3.67;;;24.00;57.90;;;;;;5049752;28;20025;-80
2021/04/24 08:16:46;;;;;;;10.00;3.28;;;24.10;57.40;;;;;;5040044;28;20120;-77
2021/04/24 08:19:12;;;;;;;8.77;3.40;;;24.00;57.10;;;;;;5043518;28;20052;-87
2021/04/24 08:21:39;;;;;;;9.52;3.30;;;24.10;57.30;;;;;;5031484;28;20024;-76
2021/04/24 08:24:06;;;;;;;11.85;2.88;;;24.20;57.30;;;;;;5045048;28;20110;-79
2021/04/24 08:26:32;;;;;;;10.70;3.22;;;24.20;57.80;;;;;;5040646;28;20028;-74
2021/04/24 08:28:58;;;;;;;23.50;4.65;;;24.10;57.50;;;;;;5054998;28;20033;-77
2021/04/24 08:31:24;;;;;;;11.10;4.47;;;24.00;58.00;;;;;;5054532;28;20028;-76
2021/04/24 08:33:51;;;;;;;7.28;3.47;;;23.90;58.80;;;;;;5054433;28;20033;-78
2021/04/24 08:36:16;;;;;;;12.90;3.42;;;24.00;58.70;;;;;;5052602;28;20467;-80
2021/04/24 08:38:43;;;;;;;10.88;3.83;;;23.90;58.30;;;;;;5054379;28;20079;-77
2021/04/24 08:41:09;;;;;;;23.30;3.13;;;24.10;57.80;;;;;;5050581;28;20025;-76
2021/04/24 08:43:39;;;;;;;15.07;3.60;;;24.20;58.00;;;;;;5052438;28;20039;-76
2021/04/24 08:46:05;;;;;;;9.18;3.10;;;24.30;58.80;;;;;;5049559;28;20086;-74
2021/04/24 08:48:32;;;;;;;11.20;4.95;;;24.30;60.80;;;;;;5050486;28;20078;-74
2021/04/24 08:50:57;;;;;;;13.40;3.95;;;24.30;60.30;;;;;;5040686;28;20064;-77
2021/04/24 08:53:23;;;;;;;11.38;4.38;;;24.10;61.50;;;;;;5040653;28;20083;-81
2021/04/24 08:55:49;;;;;;;15.13;4.32;;;24.10;61.20;;;;;;5053587;28;20021;-78
2021/04/24 08:58:16;;;;;;;13.93;4.53;;;24.30;62.70;;;;;;5053941;28;20558;-83
2021/04/24 09:00:45;;;;;;;20.33;5.55;;;24.30;64.90;;;;;;5054409;28;20048;-79
2021/04/24 09:03:16;;;;;;;12.25;5.10;;;24.30;62.60;;;;;;5051716;28;20473;-78
2021/04/24 09:05:42;;;;;;;;;;;24.30;63.40;;;;;;5052750;28;20027;-79
2021/04/24 09:08:10;;;;;;;14.23;4.15;;;24.20;62.90;;;;;;5052237;28;19999;-77
2021/04/24 09:10:44;;;;;;;12.50;3.55;;;24.20;65.40;;;;;;5047940;28;20029;-77
2021/04/24 09:13:21;;;;;;;13.68;4.32;;;24.30;63.50;;;;;;5057376;28;20028;-81
2021/04/24 09:15:48;;;;;;;12.68;4.15;;;24.20;64.10;;;;;;5059612;28;20382;-81
2021/04/24 09:18:15;;;;;;;19.60;4.80;;;24.20;64.60;;;;;;5054008;28;20024;-77
2021/04/24 09:20:48;;;;;;;24.95;4.93;;;24.10;65.00;;;;;;5053285;28;20048;-75
2021/04/24 09:23:17;;;;;;;12.23;3.75;;;24.10;64.00;;;;;;5053602;28;20028;-77
2021/04/24 09:25:44;;;;;;;20.02;4.82;;;23.90;62.90;;;;;;5057026;28;20070;-77
2021/04/24 09:28:23;;;;;;;11.30;4.40;;;23.90;63.90;;;;;;5055605;28;20029;-80
2021/04/24 09:30:49;;;;;;;11.73;4.13;;;23.90;65.80;;;;;;5053885;28;20108;-77
2021/04/24 09:33:15;;;;;;;13.95;4.38;;;24.00;65.60;;;;;;5049193;28;20147;-75
2021/04/24 09:35:51;;;;;;;16.52;3.72;;;24.10;64.20;;;;;;5053100;28;20037;-76
2021/04/24 09:38:28;;;;;;;9.48;3.45;;;23.90;64.10;;;;;;5052246;28;20051;-76
2021/04/24 09:41:10;;;;;;;9.55;4.25;;;23.90;62.10;;;;;;5055878;28;20045;-76
2021/04/24 09:44:03;;;;;;;12.20;5.25;;;23.90;62.60;;;;;;5056436;28;20029;-75
2021/04/24 09:46:46;;;;;;;8.45;3.78;;;23.90;62.60;;;;;;5045897;28;20017;-77
2021/04/24 09:49:14;;;;;;;14.93;4.40;;;24.00;62.40;;;;;;5034418;28;20075;-77
2021/04/24 09:51:46;;;;;;;12.23;4.20;;;23.90;62.30;;;;;;5046553;28;20033;-76
2021/04/24 09:54:12;;;;;;;230.13;15.55;;;23.80;63.30;;;;;;5047003;28;20790;-76
2021/04/24 09:56:38;;;;;;;9.18;3.65;;;23.80;68.80;;;;;;5045354;28;20541;-75
2021/04/24 09:59:07;;;;;;;7.30;3.72;;;23.80;66.10;;;;;;5037383;28;20041;-77
2021/04/24 10:01:36;;;;;;;15.23;4.20;;;23.70;66.90;;;;;;5048227;28;20474;-76
2021/04/24 10:04:02;;;;;;;11.15;3.83;;;23.40;67.10;;;;;;5062268;28;20416;-73
2021/04/24 10:06:37;;;;;;;10.80;4.05;;;23.10;67.00;;;;;;5049315;28;20070;-79
2021/04/24 10:09:11;;;;;;;14.27;4.90;;;22.90;67.50;;;;;;5048596;28;20025;-77
2021/04/24 10:11:38;;;;;;;13.27;3.97;;;22.60;67.70;;;;;;5048948;28;20056;-78
2021/04/24 10:14:05;;;;;;;15.20;4.43;;;22.50;68.10;;;;;;5040006;28;20024;-77
2021/04/24 10:16:36;;;;;;;7.82;3.83;;;22.70;67.90;;;;;;5048952;28;20025;-75
2021/04/24 10:19:06;;;;;;;8.65;4.68;;;22.80;68.60;;;;;;5052612;28;20504;-78
2021/04/24 10:21:33;;;;;;;20.63;5.70;;;22.90;69.90;;;;;;5044089;28;20033;-76
2021/04/24 10:23:59;;;;;;;9.45;3.70;;;23.10;70.50;;;;;;5036761;28;20171;-79
2021/04/24 10:26:28;;;;;;;13.13;4.53;;;23.10;70.80;;;;;;5039824;28;20107;-79
2021/04/24 10:28:55;;;;;;;15.43;4.63;;;23.10;71.40;;;;;;5044009;28;20071;-80
2021/04/24 10:31:21;;;;;;;8.52;4.03;;;23.10;72.50;;;;;;5046132;28;20022;-79
2021/04/24 10:33:48;;;;;;;9.05;3.80;;;23.00;72.30;;;;;;5051844;28;20542;-76
2021/04/24 10:36:16;;;;;;;8.55;4.07;;;22.90;70.60;;;;;;5048758;28;20036;-75
2021/04/24 10:38:48;;;;;;;11.80;4.03;;;22.80;71.70;;;;;;5045983;28;20048;-75
2021/04/24 10:41:15;;;;;;;15.25;4.32;;;22.70;71.60;;;;;;5049000;28;20101;-78
2021/04/24 10:43:42;;;;;;;11.30;4.22;;;22.60;73.30;;;;;;5052674;28;20434;-76
2021/04/24 10:46:24;;;;;;;8.75;4.25;;;22.50;74.00;;;;;;5052625;28;20431;-77
2021/04/24 10:48:50;;;;;;;12.63;4.10;;;22.50;74.40;;;;;;5054678;28;20132;-77
2021/04/24 10:51:16;;;;;;;9.57;4.75;;;22.40;76.40;;;;;;5048564;28;20108;-78
2021/04/24 10:53:42;;;;;;;7.25;3.85;;;22.40;76.20;;;;;;5056486;28;20016;-80
2021/04/24 10:56:07;;;;;;;9.90;3.78;;;22.40;76.50;;;;;;5054947;28;20024;-78
2021/04/24 10:58:33;;;;;;;18.08;5.63;;;22.40;76.60;;;;;;5045059;28;20025;-78
2021/04/24 11:01:00;;;;;;;11.27;4.28;;;22.40;75.40;;;;;;5046087;28;20048;-76
2021/04/24 11:03:50;;;;;;;14.45;4.05;;;22.50;74.70;;;;;;5050595;28;20071;-78
2021/04/24 11:06:22;;;;;;;10.95;4.07;;;22.50;75.50;;;;;;5061497;28;20030;-78
2021/04/24 11:08:51;;;;;;;8.48;3.70;;;22.40;74.50;;;;;;5042240;28;20021;-77
2021/04/24 11:11:22;;;;;;;10.13;4.03;;;22.40;73.40;;;;;;5050341;28;20052;-79
2021/04/24 11:13:49;;;;;;;18.23;6.38;;;22.30;74.20;;;;;;5034854;28;20112;-80
2021/04/24 11:16:17;;;;;;;11.82;3.83;;;22.10;74.20;;;;;;5047125;28;20545;-79
2021/04/24 11:18:49;;;;;;;16.42;4.65;;;22.10;74.80;;;;;;5051507;28;20059;-78
2021/04/24 11:21:17;;;;;;;;;;;22.10;74.10;;;;;;5048924;28;20498;-75
2021/04/24 11:23:44;;;;;;;9.70;3.97;;;22.10;74.70;;;;;;5033293;28;19905;-79
2021/04/24 11:26:45;;;;;;;8.85;4.22;;;22.00;74.00;;;;;;5048159;28;20108;-79
2021/04/24 11:29:17;;;;;;;8.27;3.55;;;22.00;73.20;;;;;;5038722;28;20091;-74
2021/04/24 11:31:42;;;;;;;6.15;2.97;;;22.00;73.70;;;;;;5035750;28;20072;-76
2021/04/24 11:34:35;;;;;;;7.82;3.70;;;21.90;73.70;;;;;;5037895;28;20029;-78
2021/04/24 11:37:20;;;;;;;8.82;3.53;;;21.90;74.80;;;;;;5042451;28;20037;-76
2021/04/24 11:40:16;;;;;;;8.02;3.33;;;21.80;74.30;;;;;;5034909;28;20060;-79
2021/04/24 11:43:07;;;;;;;13.25;3.78;;;21.70;76.20;;;;;;5038496;28;20017;-78
2021/04/24 11:45:51;;;;;;;6.53;3.58;;;21.60;77.80;;;;;;5039312;28;20478;-78
2021/04/24 11:48:38;;;;;;;7.47;3.05;;;21.50;79.40;;;;;;5035332;28;20041;-79
2021/04/24 11:51:04;;;;;;;7.28;3.65;;;21.50;78.50;;;;;;5045954;28;20100;-78
2021/04/24 11:53:46;;;;;;;6.20;3.10;;;21.40;81.10;;;;;;5031922;28;20026;-76
2021/04/24 11:56:15;;;;;;;7.25;3.90;;;21.40;81.20;;;;;;5038569;28;20108;-79
2021/04/24 11:58:44;;;;;;;9.13;4.32;;;21.40;82.60;;;;;;5048450;28;20511;-77
2021/04/24 12:01:18;;;;;;;8.77;4.22;;;21.40;81.50;;;;;;5048872;28;20078;-78
2021/04/24 12:03:44;;;;;;;10.55;4.20;;;21.40;81.80;;;;;;5042692;28;20063;-76
2021/04/24 12:06:10;;;;;;;10.00;3.83;;;21.40;82.50;;;;;;5044994;28;20080;-80
2021/04/24 12:08:35;;;;;;;10.27;3.50;;;21.30;82.30;;;;;;5050952;28;20017;-77
2021/04/24 12:11:07;;;;;;;7.43;3.45;;;21.30;82.20;;;;;;5047956;28;20063;-80
2021/04/24 12:13:34;;;;;;;7.75;3.38;;;21.10;83.40;;;;;;5041057;28;20025;-80
2021/04/24 12:15:59;;;;;;;12.57;3.72;;;21.10;83.70;;;;;;5046198;28;20057;-81
2021/04/24 12:18:32;;;;;;;20.35;3.75;;;21.10;83.60;;;;;;5057583;28;20068;-82
2021/04/24 12:20:58;;;;;;;10.57;3.58;;;21.20;81.40;;;;;;5049824;28;20025;-73
2021/04/24 12:23:24;;;;;;;14.30;3.35;;;21.30;79.70;;;;;;5049298;28;20108;-80
2021/04/24 12:25:50;;;;;;;10.10;3.53;;;21.30;78.90;;;;;;5048774;28;20024;-80
2021/04/24 12:28:22;;;;;;;8.95;3.60;;;21.30;78.40;;;;;;5053318;28;20051;-80
2021/04/24 12:30:48;;;;;;;8.73;3.47;;;21.30;77.60;;;;;;5049694;28;20151;-81
2021/04/24 12:33:19;;;;;;;7.45;3.15;;;21.30;77.50;;;;;;5048348;28;20053;-81
2021/04/24 12:35:51;;;;;;;14.05;4.35;;;21.10;79.80;;;;;;5049817;28;20033;-76
2021/04/24 12:38:16;;;;;;;;;;;21.00;79.70;;;;;;5055199;28;20068;-81
2021/04/24 12:40:48;;;;;;;6.88;3.38;;;21.00;83.40;;;;;;5054834;28;20053;-76
2021/04/24 12:43:16;;;;;;;6.53;4.15;;;20.90;85.80;;;;;;5054776;28;20074;-77
2021/04/24 12:45:44;;;;;;;10.88;3.83;;;20.80;88.40;;;;;;5054759;28;20049;-76